Terminal Aerodrome Forecast
Issued by NWS Denver/Boulder, CO

Home | Current Version | Previous Version | Text Only | Print | Product List | Glossary On
Versions: 1 2 3 4 5 6 7 8 9 10 11 12 13 14 15 16 17 18 19 20 21 22 23 24 25 26 27 28 29 30 31 32 33 34 35 36 37 38 39 40 41 42 43 44 45 46 47 48 49 50
000
FTUS45 KBOU 231120
TAFDEN
TAF
KDEN 231120Z 2312/2418 21007KT P6SM VCFG FEW015 SCT120
     FM231500 VRB05KT P6SM SCT120 BKN200
     FM231800 13007KT P6SM FEW080 BKN120
     FM232100 31010KT P6SM VCTS SCT080CB BKN120 PROB30 2321/2401
      VRB20G35KT -TSRA BKN080CB
     FM240200 33010KT P6SM VCSH SCT080 BKN120
     FM240500 30007KT P6SM FEW080 SCT120
     FM240700 23007KT P6SM SCT120=

USA.gov is the U.S. government's official web portal to all federal, state and local government web resources and services.